Time;durP1;ratioP1;P1;durP2;ratioP2;P2;SDS_P1;SDS_P2;PMS_P1;PMS_P2;Temp;Humidity;BMP_temperature;BMP_pressure;BME280_temperature;BME280_humidity;BME280_pressure;Samples;Min_cycle;Max_cycle;Signal;HPM_P1;HPM_P2
2022/11/04 00:01:38;;;;;;;10.60;6.47;;;11.90;99.90;;;;;;7606285;19;20475;-76
2022/11/04 00:04:12;;;;;;;10.48;6.63;;;11.90;99.90;;;;;;7604785;19;20498;-76
2022/11/04 00:06:44;;;;;;;9.10;5.43;;;12.00;99.90;;;;;;7608433;19;20011;-75
2022/11/04 00:09:19;;;;;;;12.45;6.43;;;12.00;99.90;;;;;;7612485;19;20014;-74
2022/11/04 00:14:42;;;;;;;14.02;5.97;;;12.10;99.90;;;;;;7591112;19;20026;-72
2022/11/04 00:17:23;;;;;;;11.65;6.03;;;12.10;99.90;;;;;;7600398;19;20022;-72
2022/11/04 00:28:44;;;;;;;9.98;6.00;;;12.00;99.90;;;;;;7605413;19;20037;-76
2022/11/04 00:34:06;;;;;;;11.18;6.10;;;11.90;99.90;;;;;;7599074;19;20021;-75
2022/11/04 00:36:39;;;;;;;12.18;5.47;;;11.90;99.90;;;;;;7601056;19;20018;-76
2022/11/04 00:39:11;;;;;;;6.25;4.97;;;11.90;99.90;;;;;;7605597;19;20014;-72
2022/11/04 00:41:43;;;;;;;8.77;4.03;;;11.90;99.90;;;;;;7609892;19;20021;-72
2022/11/04 00:44:15;;;;;;;8.55;4.28;;;11.80;99.90;;;;;;7602288;19;20033;-72
2022/11/04 00:46:47;;;;;;;6.70;4.55;;;11.70;99.90;;;;;;7606535;19;20018;-73
2022/11/04 00:49:19;;;;;;;5.85;3.97;;;11.70;99.90;;;;;;7597821;19;21384;-73
2022/11/04 00:51:51;;;;;;;4.70;3.45;;;11.70;99.90;;;;;;7606538;19;20585;-73
2022/11/04 00:54:23;;;;;;;6.88;3.28;;;11.70;99.90;;;;;;7605899;19;20352;-73
2022/11/04 00:56:55;;;;;;;4.88;3.40;;;11.60;99.90;;;;;;7587721;19;20010;-73
2022/11/04 00:59:27;;;;;;;6.13;2.85;;;11.50;99.90;;;;;;7602988;19;20014;-74
2022/11/04 01:01:59;;;;;;;5.45;3.10;;;11.40;99.90;;;;;;7594209;19;20034;-73
2022/11/04 01:04:32;;;;;;;5.75;3.33;;;11.20;99.90;;;;;;7603213;19;20018;-74
2022/11/04 01:07:04;;;;;;;4.35;2.72;;;11.10;99.90;;;;;;7603628;19;20022;-72
2022/11/04 01:09:36;;;;;;;3.97;2.90;;;10.90;99.90;;;;;;7604542;19;20025;-73
2022/11/04 01:12:08;;;;;;;4.43;2.92;;;10.80;99.90;;;;;;7598149;19;20433;-72
2022/11/04 01:14:40;;;;;;;5.80;2.67;;;10.70;99.90;;;;;;7571644;19;20018;-74
2022/11/04 01:17:12;;;;;;;3.97;2.60;;;10.60;99.90;;;;;;7572982;19;20913;-73
2022/11/04 01:19:44;;;;;;;7.82;3.67;;;10.50;99.90;;;;;;7594108;19;20085;-73
2022/11/04 01:22:16;;;;;;;4.57;2.95;;;10.30;99.90;;;;;;7602460;19;20018;-74
2022/11/04 01:24:49;;;;;;;7.85;2.78;;;10.20;99.90;;;;;;7602319;19;20029;-72
2022/11/04 01:27:21;;;;;;;4.60;3.13;;;10.20;99.90;;;;;;7595844;19;20048;-72
2022/11/04 01:29:53;;;;;;;5.47;2.95;;;10.10;99.90;;;;;;7573816;19;20014;-72
2022/11/04 01:32:26;;;;;;;6.68;2.83;;;10.00;99.90;;;;;;7595329;19;20018;-72
2022/11/04 01:34:59;;;;;;;5.28;3.17;;;9.90;99.90;;;;;;7595006;19;20022;-72
2022/11/04 01:37:31;;;;;;;2.80;2.00;;;9.80;99.90;;;;;;7594925;19;20018;-72
2022/11/04 01:40:04;;;;;;;4.18;2.47;;;9.80;99.90;;;;;;7584928;19;20038;-72
2022/11/04 01:42:36;;;;;;;4.13;2.38;;;9.80;99.90;;;;;;7588735;19;20014;-72
2022/11/04 01:45:14;;;;;;;3.55;2.00;;;9.70;99.90;;;;;;7599589;19;20026;-72
2022/11/04 01:48:20;;;;;;;3.35;2.25;;;9.60;99.90;;;;;;7607159;19;20014;-73
2022/11/04 01:50:53;;;;;;;3.15;2.08;;;9.60;99.90;;;;;;7594867;19;20355;-73
2022/11/04 01:53:35;;;;;;;4.30;1.70;;;9.60;99.90;;;;;;7609393;19;20014;-73
2022/11/04 01:56:11;;;;;;;3.70;2.60;;;9.50;99.90;;;;;;7596765;19;20271;-73
2022/11/04 01:58:47;;;;;;;3.47;2.00;;;9.60;99.90;;;;;;7606685;19;20010;-73
2022/11/04 02:01:19;;;;;;;3.85;2.13;;;9.50;99.90;;;;;;7608044;19;20101;-73
2022/11/04 02:10:49;;;;;;;4.20;1.67;;;9.50;99.90;;;;;;7579381;19;21134;-74
2022/11/04 02:13:21;;;;;;;1.48;1.20;;;9.60;99.90;;;;;;7597083;19;20018;-73
2022/11/04 02:16:24;;;;;;;3.20;1.50;;;9.60;99.90;;;;;;7609275;19;20324;-73
2022/11/04 02:19:38;;;;;;;2.10;1.20;;;9.60;99.90;;;;;;7610144;19;20522;-72
2022/11/04 02:22:37;;;;;;;2.35;1.73;;;9.60;99.90;;;;;;7597620;19;20125;-74
2022/11/04 02:25:50;;;;;;;3.58;1.48;;;9.60;99.90;;;;;;7610536;19;20601;-73
2022/11/04 02:28:50;;;;;;;1.88;1.00;;;9.70;99.90;;;;;;7604116;19;20274;-73
2022/11/04 02:32:08;;;;;;;2.55;1.70;;;9.70;99.90;;;;;;7611583;19;20953;-73
2022/11/04 02:34:46;;;;;;;4.20;1.50;;;9.70;99.90;;;;;;7599614;19;20812;-73
2022/11/04 02:37:39;;;;;;;3.17;1.70;;;9.60;99.90;;;;;;7601243;19;20018;-74
2022/11/04 02:40:15;;;;;;;2.15;1.27;;;9.50;99.90;;;;;;7601910;19;20022;-73
2022/11/04 02:43:08;;;;;;;2.00;1.30;;;9.50;99.90;;;;;;7603957;19;20499;-74
2022/11/04 02:45:43;;;;;;;;;;;9.40;99.90;;;;;;7608881;19;20085;-73
2022/11/04 02:48:51;;;;;;;4.13;1.73;;;9.40;99.90;;;;;;7605287;19;19968;-73
2022/11/04 02:51:40;;;;;;;4.07;1.35;;;9.40;99.90;;;;;;7602117;19;20021;-73
2022/11/04 02:54:40;;;;;;;2.33;1.80;;;9.30;99.90;;;;;;7608442;19;20022;-73
2022/11/04 02:57:18;;;;;;;3.75;2.15;;;9.30;99.90;;;;;;7603023;19;20453;-73
2022/11/04 03:00:00;;;;;;;3.53;1.60;;;9.30;99.90;;;;;;7604126;19;20411;-73
2022/11/04 03:02:41;;;;;;;1.70;1.30;;;9.20;99.90;;;;;;7588593;19;20319;-73
2022/11/04 03:05:18;;;;;;;1.80;1.33;;;9.20;99.90;;;;;;7580692;19;20025;-73
2022/11/04 03:07:52;;;;;;;3.10;1.17;;;9.20;99.90;;;;;;7605793;19;20976;-74
2022/11/04 03:10:43;;;;;;;1.77;1.30;;;9.20;99.90;;;;;;7604032;19;20048;-73
2022/11/04 03:13:39;;;;;;;3.25;1.38;;;9.20;99.90;;;;;;7606778;19;20231;-74
2022/11/04 03:16:19;;;;;;;3.08;1.15;;;9.20;99.90;;;;;;7600534;19;20007;-74
2022/11/04 03:19:15;;;;;;;3.85;1.40;;;9.20;99.90;;;;;;7607171;19;20034;-73
2022/11/04 03:21:54;;;;;;;1.98;1.20;;;9.20;99.90;;;;;;7601300;19;20128;-74
2022/11/04 03:24:27;;;;;;;2.05;1.30;;;9.20;99.90;;;;;;7609270;19;20021;-74
2022/11/04 03:27:30;;;;;;;3.77;1.37;;;9.20;99.90;;;;;;7603050;19;20351;-74
2022/11/04 03:30:07;;;;;;;2.72;1.30;;;9.20;99.90;;;;;;7608814;19;20010;-73
2022/11/04 03:33:09;;;;;;;1.45;1.15;;;9.20;99.90;;;;;;7605100;19;20018;-73
2022/11/04 03:35:42;;;;;;;2.28;1.38;;;9.20;99.90;;;;;;7601608;19;20057;-73
2022/11/04 03:38:15;;;;;;;7.80;1.20;;;9.20;99.90;;;;;;7608721;19;20017;-73
2022/11/04 03:40:47;;;;;;;1.40;0.85;;;9.30;99.90;;;;;;7605768;19;20014;-73
2022/11/04 03:43:29;;;;;;;1.95;1.27;;;9.20;99.90;;;;;;7615877;19;20037;-73
2022/11/04 03:46:02;;;;;;;2.25;0.93;;;9.20;99.90;;;;;;7609732;19;20033;-73
2022/11/04 03:48:34;;;;;;;1.27;0.90;;;9.20;99.90;;;;;;7593757;19;20051;-74
2022/11/04 03:51:08;;;;;;;1.10;1.00;;;9.30;99.90;;;;;;7603591;19;20011;-74
2022/11/04 03:53:41;;;;;;;2.22;1.10;;;9.30;99.90;;;;;;7597442;19;20011;-74
2022/11/04 03:56:46;;;;;;;1.80;1.10;;;9.30;99.90;;;;;;7579890;19;20033;-74
2022/11/04 03:59:52;;;;;;;1.52;0.80;;;9.40;99.90;;;;;;7584822;19;20451;-73
2022/11/04 04:02:57;;;;;;;1.65;1.25;;;9.30;99.90;;;;;;7577525;19;20046;-73
2022/11/04 04:05:44;;;;;;;1.63;1.00;;;9.30;99.90;;;;;;7584455;19;20016;-73
2022/11/04 04:08:34;;;;;;;2.03;1.25;;;9.30;99.90;;;;;;7595903;19;20192;-73
2022/11/04 04:11:10;;;;;;;1.55;0.70;;;9.30;99.90;;;;;;7596760;19;20731;-73
2022/11/04 04:13:52;;;;;;;1.77;1.00;;;9.30;99.90;;;;;;7598837;19;20014;-71
2022/11/04 04:16:40;;;;;;;2.10;1.25;;;9.20;99.90;;;;;;7597657;19;20026;-73
2022/11/04 04:19:22;;;;;;;2.13;1.30;;;9.20;99.90;;;;;;7608766;19;20513;-73
2022/11/04 04:22:01;;;;;;;0.90;0.80;;;9.20;99.90;;;;;;7597384;19;20018;-73
2022/11/04 04:27:30;;;;;;;3.90;1.10;;;9.20;99.90;;;;;;7599843;19;20060;-72
2022/11/04 04:30:09;;;;;;;0.98;0.85;;;9.20;99.90;;;;;;7605487;19;20024;-72
2022/11/04 04:32:43;;;;;;;1.45;1.05;;;9.10;99.90;;;;;;7602385;19;20043;-73
2022/11/04 04:47:23;;;;;;;1.52;0.77;;;9.10;99.90;;;;;;7604252;19;20021;-73
2022/11/04 04:49:57;;;;;;;2.00;1.38;;;9.10;99.90;;;;;;7608144;19;20006;-73
2022/11/04 04:52:33;;;;;;;1.67;1.00;;;9.20;99.90;;;;;;7601522;19;20795;-73
2022/11/04 04:55:06;;;;;;;1.67;0.90;;;9.20;99.90;;;;;;7600686;19;20406;-73
2022/11/04 04:57:38;;;;;;;2.53;1.45;;;9.20;99.90;;;;;;7598530;19;20888;-73
2022/11/04 05:00:20;;;;;;;5.50;2.22;;;9.20;99.90;;;;;;7600117;19;21027;-72
2022/11/04 05:02:52;;;;;;;3.20;2.05;;;9.20;99.90;;;;;;7594769;19;20018;-72
2022/11/04 05:05:24;;;;;;;4.45;2.47;;;9.20;99.90;;;;;;7597629;19;21059;-73
2022/11/04 05:08:04;;;;;;;2.75;1.52;;;9.20;99.90;;;;;;7602661;19;20018;-72
2022/11/04 05:10:37;;;;;;;2.08;1.33;;;9.10;99.90;;;;;;7600257;19;20015;-73
2022/11/04 05:13:27;;;;;;;1.85;1.33;;;9.20;99.90;;;;;;7599632;19;20014;-73
2022/11/04 05:16:08;;;;;;;1.60;1.05;;;9.20;99.90;;;;;;7597759;19;20011;-73
2022/11/04 05:18:40;;;;;;;4.97;2.45;;;9.10;99.90;;;;;;7599241;19;20138;-73
2022/11/04 05:21:14;;;;;;;8.77;4.00;;;9.10;99.90;;;;;;7603531;19;20014;-73
2022/11/04 05:23:46;;;;;;;3.08;1.75;;;9.00;99.90;;;;;;7598591;19;20736;-72
2022/11/04 05:26:18;;;;;;;2.10;1.08;;;9.10;99.90;;;;;;7600255;19;20117;-73
2022/11/04 05:28:51;;;;;;;6.57;3.63;;;9.10;99.90;;;;;;7601498;19;20022;-72
2022/11/04 05:31:23;;;;;;;4.10;2.63;;;9.00;99.90;;;;;;7606940;19;20025;-73
2022/11/04 05:33:56;;;;;;;2.40;1.88;;;8.90;99.90;;;;;;7607722;19;20022;-73
2022/11/04 05:36:29;;;;;;;4.30;2.22;;;8.90;99.90;;;;;;7606787;19;20019;-73
2022/11/04 05:39:00;;;;;;;4.30;2.45;;;9.00;99.90;;;;;;7610403;19;20037;-73
2022/11/04 05:41:33;;;;;;;4.90;2.28;;;9.00;99.90;;;;;;7610163;19;20018;-73
2022/11/04 05:44:08;;;;;;;5.40;2.58;;;8.90;99.90;;;;;;7609585;19;20612;-73
2022/11/04 05:46:40;;;;;;;2.35;1.50;;;8.90;99.90;;;;;;7601171;19;20013;-73
2022/11/04 05:49:12;;;;;;;3.63;2.17;;;8.90;99.90;;;;;;7590216;19;20664;-73
2022/11/04 05:51:44;;;;;;;3.45;2.05;;;8.90;99.90;;;;;;7594598;19;20030;-73
2022/11/04 05:54:16;;;;;;;4.13;1.48;;;8.90;99.90;;;;;;7589982;19;20020;-73
2022/11/04 05:56:48;;;;;;;4.30;1.90;;;8.80;99.90;;;;;;7599595;19;20101;-72
2022/11/04 05:59:20;;;;;;;3.20;1.70;;;8.90;99.90;;;;;;7598371;19;20014;-72
2022/11/04 06:01:52;;;;;;;3.08;1.98;;;8.80;99.90;;;;;;7596768;19;20367;-72
2022/11/04 06:04:25;;;;;;;3.90;2.15;;;8.80;99.90;;;;;;7595691;19;20786;-72
2022/11/04 06:06:57;;;;;;;7.80;3.78;;;8.80;99.90;;;;;;7592796;19;20034;-72
2022/11/04 06:09:38;;;;;;;10.93;5.45;;;8.70;99.90;;;;;;7599477;19;20007;-73
2022/11/04 06:12:14;;;;;;;8.88;3.63;;;8.70;99.90;;;;;;7598940;19;20022;-73
2022/11/04 06:14:47;;;;;;;8.50;3.47;;;8.70;99.90;;;;;;7596568;19;20045;-72
2022/11/04 06:17:20;;;;;;;10.75;4.40;;;8.70;99.90;;;;;;7598095;19;21035;-72
2022/11/04 06:19:52;;;;;;;;;;;8.60;99.90;;;;;;7596112;19;20017;-73
2022/11/04 06:22:24;;;;;;;5.90;3.08;;;8.60;99.90;;;;;;7599403;19;19922;-72
2022/11/04 06:24:56;;;;;;;4.15;2.00;;;8.70;99.90;;;;;;7606719;19;20010;-72
2022/11/04 06:27:28;;;;;;;5.65;2.75;;;8.70;99.90;;;;;;7602476;19;20010;-72
2022/11/04 06:30:00;;;;;;;8.23;3.55;;;8.70;99.90;;;;;;7602532;19;20011;-73
2022/11/04 06:32:32;;;;;;;5.13;2.30;;;8.60;99.90;;;;;;7609806;19;20432;-72
2022/11/04 06:35:07;;;;;;;3.72;1.95;;;8.60;99.90;;;;;;7604187;19;25294;-72
2022/11/04 06:37:39;;;;;;;5.10;2.25;;;8.50;99.90;;;;;;7609674;19;20022;-72
2022/11/04 06:40:12;;;;;;;4.45;1.50;;;8.40;99.90;;;;;;7613553;19;20926;-72
2022/11/04 06:42:44;;;;;;;6.68;2.50;;;8.40;99.90;;;;;;7612335;19;20389;-72
2022/11/04 06:45:16;;;;;;;3.90;1.50;;;8.30;99.90;;;;;;7614385;19;20026;-72
2022/11/04 06:47:48;;;;;;;2.97;1.42;;;8.40;99.90;;;;;;7600128;19;20497;-72
2022/11/04 06:50:20;;;;;;;3.50;1.77;;;8.30;99.90;;;;;;7612070;19;20507;-72
2022/11/04 06:52:52;;;;;;;4.35;2.28;;;8.30;99.90;;;;;;7609895;19;20493;-72
2022/11/04 06:55:24;;;;;;;4.97;2.53;;;8.20;99.90;;;;;;7614531;19;20019;-72
2022/11/04 06:57:57;;;;;;;6.53;3.70;;;8.20;99.90;;;;;;7618568;19;20474;-72
2022/11/04 07:00:29;;;;;;;6.45;3.08;;;8.30;99.90;;;;;;7602624;19;20010;-71
2022/11/04 07:03:01;;;;;;;3.28;1.73;;;8.30;99.90;;;;;;7600485;19;20014;-71
2022/11/04 07:05:34;;;;;;;6.10;1.63;;;8.30;99.90;;;;;;7605704;19;20468;-72
2022/11/04 07:08:06;;;;;;;4.60;2.03;;;8.30;99.90;;;;;;7607515;19;20173;-72
2022/11/04 07:10:39;;;;;;;4.95;1.70;;;8.30;99.90;;;;;;7616656;19;20055;-72
2022/11/04 07:13:11;;;;;;;5.53;1.85;;;8.30;99.90;;;;;;7613159;19;20010;-70
2022/11/04 07:15:43;;;;;;;5.25;1.98;;;8.30;99.90;;;;;;7599484;19;20014;-72
2022/11/04 07:18:15;;;;;;;6.07;2.28;;;8.40;99.90;;;;;;7596272;19;20014;-74
2022/11/04 07:20:47;;;;;;;5.28;2.15;;;8.40;99.90;;;;;;7601960;19;20030;-73
2022/11/04 07:23:19;;;;;;;4.30;2.15;;;8.40;99.90;;;;;;7609642;19;20021;-70
2022/11/04 07:25:53;;;;;;;6.10;2.70;;;8.40;99.90;;;;;;7609923;19;20044;-71
2022/11/04 07:28:25;;;;;;;6.35;3.40;;;8.30;99.90;;;;;;7601616;19;21373;-71
2022/11/04 07:30:59;;;;;;;8.80;2.70;;;8.30;99.90;;;;;;7605652;19;20030;-72
2022/11/04 07:33:32;;;;;;;8.73;4.90;;;8.30;99.90;;;;;;7604436;19;20448;-70
2022/11/04 07:36:06;;;;;;;5.22;2.25;;;8.30;99.90;;;;;;7598959;19;20015;-72
2022/11/04 07:38:38;;;;;;;3.97;2.13;;;8.20;99.90;;;;;;7608332;19;20632;-71
2022/11/04 07:41:11;;;;;;;6.50;2.58;;;8.20;99.90;;;;;;7607289;19;20799;-71
2022/11/04 07:43:51;;;;;;;3.40;2.33;;;8.20;99.90;;;;;;7599677;19;20382;-71
2022/11/04 07:46:23;;;;;;;5.82;2.20;;;8.20;99.90;;;;;;7602031;19;20015;-71
2022/11/04 07:48:57;;;;;;;6.72;2.97;;;8.20;99.90;;;;;;7603699;19;20094;-71
2022/11/04 07:51:31;;;;;;;18.23;8.60;;;8.20;99.90;;;;;;7592981;19;20010;-72
2022/11/04 07:54:03;;;;;;;11.95;4.60;;;8.20;99.90;;;;;;7603582;19;20057;-71
2022/11/04 07:56:35;;;;;;;11.10;5.95;;;8.20;99.90;;;;;;7601637;19;20010;-71
2022/11/04 07:59:07;;;;;;;10.25;5.18;;;8.10;99.90;;;;;;7611508;19;20010;-71
2022/11/04 08:01:40;;;;;;;2.92;1.98;;;8.10;99.90;;;;;;7606951;19;20022;-71
2022/11/04 08:04:12;;;;;;;6.05;3.28;;;8.20;99.90;;;;;;7602487;19;20105;-71
2022/11/04 08:06:44;;;;;;;6.80;4.18;;;8.20;99.90;;;;;;7583219;19;20014;-71
2022/11/04 08:09:16;;;;;;;5.43;3.00;;;8.10;99.90;;;;;;7601345;19;20014;-71
2022/11/04 08:11:48;;;;;;;5.93;3.97;;;8.10;99.90;;;;;;7610723;19;20021;-71
2022/11/04 08:14:20;;;;;;;3.22;2.10;;;8.20;99.90;;;;;;7607637;19;20014;-71
2022/11/04 08:16:53;;;;;;;5.55;2.80;;;8.10;99.90;;;;;;7596766;19;20030;-71
2022/11/04 08:19:25;;;;;;;7.55;3.67;;;8.10;99.90;;;;;;7606975;19;20545;-72
2022/11/04 08:21:57;;;;;;;6.45;3.50;;;8.10;99.90;;;;;;7596002;19;20597;-72
2022/11/04 08:24:30;;;;;;;9.07;4.30;;;8.10;99.90;;;;;;7577821;19;20582;-71
2022/11/04 08:27:03;;;;;;;8.43;2.60;;;8.10;99.90;;;;;;7602005;19;20037;-72
2022/11/04 08:29:36;;;;;;;;;;;8.10;99.90;;;;;;7606780;19;20014;-72
2022/11/04 08:32:08;;;;;;;4.35;2.47;;;8.10;99.90;;;;;;7603295;19;19925;-72
2022/11/04 08:34:40;;;;;;;6.80;2.75;;;8.00;99.90;;;;;;7600267;19;20018;-73
2022/11/04 08:37:14;;;;;;;4.32;1.92;;;8.10;99.90;;;;;;7588690;19;20025;-72
2022/11/04 08:39:46;;;;;;;7.75;3.30;;;8.00;99.90;;;;;;7586390;19;20644;-72
2022/11/04 08:42:19;;;;;;;8.50;3.15;;;7.90;99.90;;;;;;7596889;19;20010;-72
2022/11/04 08:44:51;;;;;;;6.13;3.08;;;7.90;99.90;;;;;;7604350;19;20071;-71
2022/11/04 08:47:23;;;;;;;4.35;2.90;;;7.90;99.90;;;;;;7588529;19;20018;-73
2022/11/04 08:49:55;;;;;;;4.28;1.83;;;8.00;99.90;;;;;;7596879;19;20017;-72
2022/11/04 08:52:27;;;;;;;6.32;2.85;;;8.00;99.90;;;;;;7589683;19;20014;-72
2022/11/04 08:54:59;;;;;;;5.63;2.53;;;7.90;99.90;;;;;;7597094;19;20021;-71
2022/11/04 08:57:32;;;;;;;7.43;4.00;;;7.90;99.90;;;;;;7592313;19;20018;-72
2022/11/04 09:00:05;;;;;;;10.85;5.57;;;8.00;99.90;;;;;;7601026;19;20034;-73
2022/11/04 09:02:39;;;;;;;;;;;8.00;99.90;;;;;;7607566;19;20026;-71
2022/11/04 09:05:11;;;;;;;9.70;2.00;;;7.90;99.90;;;;;;7600183;19;19932;-72
2022/11/04 09:07:43;;;;;;;10.05;3.83;;;7.80;99.90;;;;;;7604666;19;20026;-71
2022/11/04 09:10:16;;;;;;;7.88;4.03;;;7.80;99.90;;;;;;7590787;19;20018;-72
2022/11/04 09:12:48;;;;;;;4.60;2.58;;;7.80;99.90;;;;;;7608417;19;20006;-72
2022/11/04 09:15:20;;;;;;;5.50;2.47;;;7.80;99.90;;;;;;7586360;19;20014;-71
2022/11/04 09:17:52;;;;;;;5.30;3.00;;;7.80;99.90;;;;;;7594418;19;20007;-71
2022/11/04 09:20:26;;;;;;;5.18;2.30;;;7.90;99.90;;;;;;7596903;19;20010;-72
2022/11/04 09:22:58;;;;;;;7.50;4.18;;;7.90;99.90;;;;;;7602014;19;20025;-72
2022/11/04 09:25:31;;;;;;;9.57;4.40;;;7.90;99.90;;;;;;7598663;19;20018;-72
2022/11/04 09:28:04;;;;;;;6.47;2.20;;;7.90;99.90;;;;;;7599896;19;20769;-72
2022/11/04 09:30:37;;;;;;;4.32;2.20;;;8.00;99.90;;;;;;7599101;19;20017;-72
2022/11/04 09:33:09;;;;;;;3.22;1.92;;;7.90;99.90;;;;;;7598544;19;20343;-72
2022/11/04 09:35:41;;;;;;;5.00;2.30;;;8.00;99.90;;;;;;7601247;19;20115;-72
2022/11/04 09:38:13;;;;;;;5.13;2.78;;;7.90;99.90;;;;;;7604900;19;25197;-73
2022/11/04 09:40:47;;;;;;;3.83;2.58;;;7.90;99.90;;;;;;7598787;19;20006;-71
2022/11/04 09:43:38;;;;;;;6.25;2.78;;;8.00;99.90;;;;;;7598447;19;21204;-71
2022/11/04 09:46:11;;;;;;;7.97;4.10;;;8.10;99.90;;;;;;7595357;19;20022;-71
2022/11/04 09:48:49;;;;;;;7.00;3.88;;;8.00;99.90;;;;;;7587124;19;20041;-71
2022/11/04 09:51:25;;;;;;;5.95;3.80;;;8.00;99.90;;;;;;7594316;19;20030;-72
2022/11/04 09:54:41;;;;;;;8.02;4.80;;;8.10;99.90;;;;;;7585823;19;20011;-72
2022/11/04 09:57:19;;;;;;;7.70;4.75;;;8.10;99.90;;;;;;7587617;19;20026;-71
2022/11/04 09:59:52;;;;;;;7.35;4.32;;;8.10;99.90;;;;;;7611148;19;20014;-71
2022/11/04 10:02:43;;;;;;;6.38;3.42;;;8.10;99.90;;;;;;7586669;19;20014;-72
2022/11/04 10:05:36;;;;;;;7.00;3.53;;;8.20;99.90;;;;;;7618114;19;20018;-72
2022/11/04 10:08:27;;;;;;;8.15;3.90;;;8.10;99.90;;;;;;7595622;19;20026;-72
2022/11/04 10:11:11;;;;;;;8.32;3.85;;;8.10;99.90;;;;;;7591883;19;20998;-72
2022/11/04 10:13:48;;;;;;;6.95;3.58;;;8.10;99.90;;;;;;7602631;19;20014;-72
2022/11/04 10:16:31;;;;;;;5.57;3.03;;;8.10;99.90;;;;;;7593805;19;20018;-71
2022/11/04 10:19:16;;;;;;;5.20;3.03;;;8.10;99.90;;;;;;7588442;19;20356;-72
2022/11/04 10:21:56;;;;;;;5.18;3.40;;;8.20;99.90;;;;;;7613616;19;20094;-72
2022/11/04 10:24:29;;;;;;;4.63;2.75;;;8.10;99.90;;;;;;7605370;19;20158;-71
2022/11/04 10:27:12;;;;;;;5.57;3.10;;;8.00;99.90;;;;;;7619877;19;22675;-72
2022/11/04 10:29:49;;;;;;;9.00;5.25;;;8.10;99.90;;;;;;7622546;19;20019;-72
2022/11/04 10:32:27;;;;;;;5.55;3.72;;;8.10;99.90;;;;;;7617407;19;20083;-72
2022/11/04 10:35:12;;;;;;;6.20;3.28;;;8.20;99.90;;;;;;7618714;19;20029;-72
2022/11/04 10:37:46;;;;;;;5.63;2.53;;;8.20;99.90;;;;;;7607403;19;20011;-71
2022/11/04 10:40:31;;;;;;;6.50;2.95;;;8.20;99.90;;;;;;7613714;19;20971;-71
2022/11/04 10:43:09;;;;;;;8.43;2.88;;;8.20;99.90;;;;;;7613284;19;20045;-72
2022/11/04 10:46:06;;;;;;;5.00;2.28;;;8.30;99.90;;;;;;7613489;19;20526;-71
2022/11/04 10:48:48;;;;;;;3.15;2.33;;;8.40;99.90;;;;;;7607758;19;20110;-72
2022/11/04 10:51:22;;;;;;;3.20;2.22;;;8.50;99.90;;;;;;7598061;19;20014;-71
2022/11/04 10:53:57;;;;;;;5.13;2.60;;;8.50;99.90;;;;;;7602715;19;20014;-71
2022/11/04 10:56:59;;;;;;;3.97;2.53;;;8.50;99.90;;;;;;7614917;19;20032;-71
2022/11/04 10:59:54;;;;;;;3.88;2.40;;;8.50;99.90;;;;;;7602012;19;20033;-72
2022/11/04 11:02:36;;;;;;;4.65;2.38;;;8.40;99.90;;;;;;7603472;19;20018;-71
2022/11/04 11:05:12;;;;;;;7.40;2.28;;;8.40;99.90;;;;;;7603654;19;20002;-72
2022/11/04 11:07:46;;;;;;;4.35;2.55;;;8.50;99.90;;;;;;7608805;19;20053;-71
2022/11/04 11:10:22;;;;;;;5.80;2.42;;;8.50;99.90;;;;;;7606487;19;20052;-72
2022/11/04 11:13:03;;;;;;;5.13;2.50;;;8.50;99.90;;;;;;7601561;19;21012;-72
2022/11/04 11:15:39;;;;;;;5.18;3.00;;;8.40;99.90;;;;;;7598237;19;20026;-71
2022/11/04 11:18:17;;;;;;;5.90;3.45;;;8.30;99.90;;;;;;7596261;19;20035;-71
2022/11/04 11:21:04;;;;;;;6.55;3.47;;;8.40;99.90;;;;;;7621447;19;20021;-72
2022/11/04 11:23:46;;;;;;;4.88;3.05;;;8.30;99.90;;;;;;7599883;19;20784;-71
2022/11/04 11:26:30;;;;;;;7.35;3.58;;;8.30;99.90;;;;;;7548955;19;21814;-71
2022/11/04 11:29:10;;;;;;;5.85;3.20;;;8.30;99.90;;;;;;7583740;19;20111;-71
2022/11/04 11:31:42;;;;;;;6.43;2.80;;;8.30;99.90;;;;;;7586693;19;20014;-72
2022/11/04 11:34:22;;;;;;;10.82;3.97;;;8.40;99.90;;;;;;7602372;19;21326;-72
2022/11/04 11:36:56;;;;;;;5.78;3.40;;;8.30;99.90;;;;;;7611038;19;20089;-71
2022/11/04 11:39:31;;;;;;;7.03;3.35;;;8.30;99.90;;;;;;7606456;19;20758;-71
2022/11/04 11:42:14;;;;;;;5.40;3.33;;;8.20;99.90;;;;;;7603051;19;20019;-72
2022/11/04 11:44:53;;;;;;;5.05;3.63;;;8.20;99.90;;;;;;7601352;19;20019;-71
2022/11/04 11:47:28;;;;;;;3.63;2.28;;;8.10;99.90;;;;;;7615753;19;20010;-72
2022/11/04 11:50:17;;;;;;;4.93;2.20;;;8.10;99.90;;;;;;7614713;19;20680;-72
2022/11/04 11:52:51;;;;;;;8.00;2.80;;;8.00;99.90;;;;;;7606525;19;20383;-74
2022/11/04 11:55:31;;;;;;;4.00;2.63;;;7.90;99.90;;;;;;7607102;19;20014;-72
2022/11/04 11:58:30;;;;;;;3.47;1.40;;;7.90;99.90;;;;;;7605996;19;20785;-71
2022/11/04 12:01:30;;;;;;;4.60;2.10;;;7.80;99.90;;;;;;7610194;19;20006;-72
2022/11/04 12:04:02;;;;;;;5.43;2.22;;;7.60;99.90;;;;;;7617533;19;21217;-72
2022/11/04 12:07:19;;;;;;;8.05;2.58;;;7.50;99.90;;;;;;7608145;19;20014;-72
2022/11/04 12:10:32;;;;;;;4.05;2.58;;;7.60;99.90;;;;;;7608117;19;21322;-72
2022/11/04 12:13:46;;;;;;;6.18;2.95;;;7.50;99.90;;;;;;7601346;19;20010;-73
2022/11/04 12:16:56;;;;;;;3.40;2.25;;;7.60;99.90;;;;;;7606450;19;20406;-72
2022/11/04 12:19:43;;;;;;;5.63;2.30;;;7.60;99.90;;;;;;7579590;19;20042;-73
2022/11/04 12:22:53;;;;;;;12.18;5.38;;;7.60;99.90;;;;;;7593731;19;20014;-72
2022/11/04 12:25:38;;;;;;;3.30;2.08;;;7.50;99.90;;;;;;7597561;19;20446;-72
2022/11/04 12:28:28;;;;;;;3.17;1.75;;;7.60;99.90;;;;;;7592923;19;20617;-72
2022/11/04 12:31:18;;;;;;;4.97;1.75;;;7.60;99.90;;;;;;7597454;19;20014;-71
2022/11/04 12:33:54;;;;;;;2.72;1.30;;;7.60;99.90;;;;;;7600901;19;20025;-72
2022/11/04 12:37:03;;;;;;;6.95;2.42;;;7.70;99.90;;;;;;7603477;19;20387;-72
2022/11/04 12:39:57;;;;;;;3.25;2.38;;;7.60;99.90;;;;;;7612945;19;20081;-71
2022/11/04 12:42:56;;;;;;;3.08;1.88;;;7.60;99.90;;;;;;7608344;19;20014;-71
2022/11/04 12:45:50;;;;;;;3.03;1.90;;;7.70;99.90;;;;;;7610611;19;20014;-72
2022/11/04 12:48:41;;;;;;;;;;;7.60;99.90;;;;;;7611456;19;20007;-71
2022/11/04 12:51:29;;;;;;;2.90;1.88;;;7.60;99.90;;;;;;7609485;19;19919;-71
2022/11/04 12:54:31;;;;;;;7.82;2.53;;;7.50;99.90;;;;;;7611261;19;20015;-71
2022/11/04 12:57:03;;;;;;;7.18;2.80;;;7.60;99.90;;;;;;7583474;19;20011;-72
2022/11/04 12:59:38;;;;;;;5.20;2.67;;;7.60;99.90;;;;;;7599720;19;20014;-71
2022/11/04 13:02:21;;;;;;;4.03;2.10;;;7.60;99.90;;;;;;7575523;19;20593;-71
2022/11/04 13:05:04;;;;;;;2.85;2.05;;;7.60;99.90;;;;;;7612956;19;20022;-71
2022/11/04 13:07:51;;;;;;;5.80;2.25;;;7.50;99.90;;;;;;7612558;19;20518;-72
2022/11/04 13:10:37;;;;;;;6.00;1.90;;;7.50;99.90;;;;;;7612896;19;20010;-72
2022/11/04 13:13:13;;;;;;;3.92;2.20;;;7.50;99.90;;;;;;7615482;19;20044;-71
2022/11/04 13:15:51;;;;;;;3.75;2.03;;;7.50;99.90;;;;;;7598659;19;20025;-72
2022/11/04 13:18:26;;;;;;;6.13;2.10;;;7.50;99.90;;;;;;7609390;19;20097;-70
2022/11/04 13:21:12;;;;;;;6.85;2.28;;;7.50;99.90;;;;;;7615595;19;20011;-71
2022/11/04 13:24:14;;;;;;;6.78;2.03;;;7.50;99.90;;;;;;7595059;19;20048;-71
2022/11/04 13:26:47;;;;;;;3.78;1.90;;;7.60;99.90;;;;;;7599818;19;20021;-71
2022/11/04 13:29:21;;;;;;;3.58;1.73;;;7.60;99.90;;;;;;7606585;19;20038;-73
2022/11/04 13:32:24;;;;;;;3.88;1.67;;;7.50;99.90;;;;;;7620599;19;20382;-73
2022/11/04 13:35:09;;;;;;;5.20;1.88;;;7.40;99.90;;;;;;7598649;19;20041;-73
2022/11/04 13:37:53;;;;;;;3.03;1.63;;;7.40;99.90;;;;;;7611495;19;20105;-73
2022/11/04 13:40:41;;;;;;;5.80;1.88;;;7.40;99.90;;;;;;7617532;19;20028;-73
2022/11/04 13:43:38;;;;;;;2.80;1.73;;;7.40;99.90;;;;;;7618730;19;20018;-73
2022/11/04 13:46:16;;;;;;;3.92;1.90;;;7.40;99.90;;;;;;7614974;19;20579;-73
2022/11/04 13:48:52;;;;;;;6.10;1.92;;;7.30;99.90;;;;;;7600099;19;20718;-71
2022/11/04 13:51:43;;;;;;;6.32;2.40;;;7.40;99.90;;;;;;7615537;19;20025;-72
2022/11/04 13:54:32;;;;;;;4.57;1.60;;;7.40;99.90;;;;;;7596793;19;20015;-71
2022/11/04 13:57:07;;;;;;;4.15;2.03;;;7.40;99.90;;;;;;7607587;19;20019;-71
2022/11/04 13:59:41;;;;;;;2.50;1.70;;;7.40;99.90;;;;;;7606897;19;20014;-71
2022/11/04 14:02:13;;;;;;;;;;;7.40;99.90;;;;;;7624445;19;20019;-72
2022/11/04 14:04:46;;;;;;;3.60;2.55;;;7.40;99.90;;;;;;7616859;19;19919;-71
2022/11/04 14:07:18;;;;;;;3.92;2.38;;;7.40;99.90;;;;;;7623657;19;20018;-72
2022/11/04 14:09:53;;;;;;;5.47;2.22;;;7.30;99.90;;;;;;7626217;19;20075;-71
2022/11/04 14:12:28;;;;;;;6.38;2.60;;;7.30;99.90;;;;;;7626485;19;20010;-72
2022/11/04 14:15:12;;;;;;;5.38;2.33;;;7.40;99.90;;;;;;7621449;19;20022;-71
2022/11/04 14:17:44;;;;;;;8.85;3.00;;;7.40;99.90;;;;;;7621637;19;20010;-72
2022/11/04 14:20:26;;;;;;;4.53;2.28;;;7.40;99.90;;;;;;7624407;19;20015;-71
2022/11/04 14:23:00;;;;;;;5.22;2.80;;;7.40;99.90;;;;;;7626294;19;20022;-72
2022/11/04 14:25:32;;;;;;;6.72;2.58;;;7.50;99.90;;;;;;7620757;19;20026;-72
2022/11/04 14:28:14;;;;;;;3.22;2.17;;;7.50;99.90;;;;;;7622687;19;20055;-72
2022/11/04 14:30:49;;;;;;;5.05;2.10;;;7.50;99.90;;;;;;7626018;19;20023;-71
2022/11/04 14:33:32;;;;;;;5.35;2.03;;;7.50;99.90;;;;;;7613948;19;20035;-71
2022/11/04 14:36:23;;;;;;;4.75;2.70;;;7.50;99.90;;;;;;7589444;19;21020;-70